Time;durP1;ratioP1;P1;durP2;ratioP2;P2;SDS_P1;SDS_P2;PMS_P1;PMS_P2;Temp;Humidity;BMP_temperature;BMP_pressure;BME280_temperature;BME280_humidity;BME280_pressure;Samples;Min_cycle;Max_cycle;Signal;HPM_P1;HPM_P2
2021/12/01 00:04:56;;;;;;;;;;;;;;;-3.45;100.00;94395.69;10526081;28;19924;-76
2021/12/01 00:09:56;;;;;;;;;;;;;;;-3.66;100.00;94400.03;10483525;28;19999;-74
2021/12/01 00:14:56;;;;;;;;;;;;;;;-3.96;100.00;94410.75;10484853;28;20313;-76
2021/12/01 00:19:56;;;;;;;;;;;;;;;-4.02;100.00;94401.03;10483653;28;19913;-74
2021/12/01 00:24:57;;;;;;;;;;;;;;;-4.18;100.00;94385.56;10484771;28;19924;-78
2021/12/01 00:29:57;;;;;;;;;;;;;;;-4.10;100.00;94387.22;10483161;28;19950;-76
2021/12/01 00:34:59;;;;;;;;;;;;;;;-4.18;100.00;94377.69;10484899;28;20443;-75
2021/12/01 00:39:59;;;;;;;;;;;;;;;-4.19;100.00;94384.72;10483264;28;19919;-74
2021/12/01 00:45:06;;;;;;;;;;;;;;;-4.20;100.00;94367.38;10524461;28;19935;-76
2021/12/01 00:50:07;;;;;;;;;;;;;;;-4.13;100.00;94377.91;10520740;28;20382;-75
2021/12/01 00:55:08;;;;;;;;;;;;;;;-3.95;100.00;94374.81;10487468;28;19919;-74
2021/12/01 01:00:09;;;;;;;;;;;;;;;-4.01;100.00;94360.63;10523723;28;19999;-73
2021/12/01 01:05:10;;;;;;;;;;;;;;;-3.90;100.00;94364.56;10511568;28;19917;-72
2021/12/01 01:20:57;;;;;;;;;;;;;;;-3.81;100.00;94371.28;10510559;28;19913;-75
2021/12/01 01:25:58;;;;;;;;;;;;;;;-3.68;100.00;94385.50;10483992;28;20378;-74
2021/12/01 01:30:59;;;;;;;;;;;;;;;-3.59;100.00;94384.31;10465317;28;20348;-74
2021/12/01 01:35:59;;;;;;;;;;;;;;;-3.54;100.00;94404.78;10495362;28;19912;-74
2021/12/01 01:41:00;;;;;;;;;;;;;;;-3.44;100.00;94411.28;10531437;28;19919;-73
2021/12/01 01:46:01;;;;;;;;;;;;;;;-3.57;100.00;94384.94;10530982;28;20405;-77
2021/12/01 01:51:03;;;;;;;;;;;;;;;-3.38;100.00;94390.50;10531931;28;19938;-74
2021/12/01 01:56:04;;;;;;;;;;;;;;;-3.34;100.00;94376.75;10531250;28;19916;-79
2021/12/01 02:01:09;;;;;;;;;;;;;;;-3.30;100.00;94369.31;10498922;28;19916;-74
2021/12/01 02:06:10;;;;;;;;;;;;;;;-3.50;100.00;94375.28;10488383;28;19916;-76
2021/12/01 02:11:11;;;;;;;;;;;;;;;-3.41;100.00;94368.03;10506205;28;19912;-74
2021/12/01 02:16:12;;;;;;;;;;;;;;;-3.46;100.00;94357.28;10530126;28;19942;-75
2021/12/01 02:21:14;;;;;;;;;;;;;;;-3.41;100.00;94349.66;10529673;28;19983;-74
2021/12/01 02:26:15;;;;;;;;;;;;;;;-3.58;100.00;94345.75;10505218;28;19955;-78
2021/12/01 02:31:16;;;;;;;;;;;;;;;-3.48;100.00;94327.81;10488063;28;19912;-75
2021/12/01 02:36:16;;;;;;;;;;;;;;;-3.41;100.00;94328.63;10489280;28;19919;-75
2021/12/01 02:41:17;;;;;;;;;;;;;;;-3.32;100.00;94334.50;10487595;28;19916;-77
2021/12/01 02:46:17;;;;;;;;;;;;;;;-3.51;100.00;94338.69;10488401;28;19939;-76
2021/12/01 02:51:22;;;;;;;;;;;;;;;-3.57;100.00;94347.34;10528906;28;20393;-75
2021/12/01 02:56:23;;;;;;;;;;;;;;;-3.56;100.00;94354.22;10529104;28;20169;-76
2021/12/01 03:01:23;;;;;;;;;;;;;;;-3.34;100.00;94365.44;10523146;28;19916;-76
2021/12/01 03:06:26;;;;;;;;;;;;;;;-3.16;100.00;94375.41;10486777;28;20007;-76
2021/12/01 03:11:27;;;;;;;;;;;;;;;-3.12;100.00;94372.19;10487687;28;19939;-79
2021/12/01 03:16:27;;;;;;;;;;;;;;;-3.08;100.00;94370.00;10485634;28;19920;-75
2021/12/01 03:21:27;;;;;;;;;;;;;;;-2.93;100.00;94357.50;10496805;28;20011;-78
2021/12/01 03:26:28;;;;;;;;;;;;;;;-2.85;100.00;94359.13;10487029;28;19921;-75
2021/12/01 03:31:29;;;;;;;;;;;;;;;-2.89;100.00;94388.66;10500000;28;19995;-75
2021/12/01 03:36:29;;;;;;;;;;;;;;;-2.92;100.00;94374.06;10502611;28;19913;-81
2021/12/01 03:41:29;;;;;;;;;;;;;;;-2.90;100.00;94379.13;10502243;28;19914;-72
2021/12/01 03:46:30;;;;;;;;;;;;;;;-2.96;100.00;94383.34;10484558;28;19928;-72
2021/12/01 03:51:30;;;;;;;;;;;;;;;-3.00;100.00;94372.44;10509351;28;19913;-75
2021/12/01 03:56:31;;;;;;;;;;;;;;;-3.06;100.00;94375.06;10501182;28;19912;-77
2021/12/01 04:01:32;;;;;;;;;;;;;;;-3.19;100.00;94383.72;10487052;28;19927;-74
2021/12/01 04:06:33;;;;;;;;;;;;;;;-3.17;100.00;94361.44;10508245;28;19997;-74
2021/12/01 04:11:33;;;;;;;;;;;;;;;-3.21;100.00;94348.91;10534067;28;19924;-76
2021/12/01 04:16:34;;;;;;;;;;;;;;;-3.18;100.00;94354.59;10532605;28;19927;-76
2021/12/01 04:21:34;;;;;;;;;;;;;;;-3.04;100.00;94355.44;10535575;28;19919;-75
2021/12/01 04:26:35;;;;;;;;;;;;;;;-3.07;100.00;94358.44;10527507;28;19923;-73
2021/12/01 04:31:37;;;;;;;;;;;;;;;-3.06;100.00;94336.41;10526677;28;20032;-73
2021/12/01 04:36:41;;;;;;;;;;;;;;;-3.05;100.00;94343.31;10523664;28;19916;-74
2021/12/01 04:41:50;;;;;;;;;;;;;;;-2.90;100.00;94339.69;10486292;28;20004;-75
2021/12/01 04:46:53;;;;;;;;;;;;;;;-2.91;100.00;94357.28;10482781;28;19931;-76
2021/12/01 04:51:55;;;;;;;;;;;;;;;-2.83;100.00;94369.44;10486912;28;19917;-77
2021/12/01 04:56:56;;;;;;;;;;;;;;;-2.95;100.00;94383.16;10500052;28;19912;-74
2021/12/01 05:01:57;;;;;;;;;;;;;;;-3.09;100.00;94373.63;10523760;28;19919;-75
2021/12/01 05:06:57;;;;;;;;;;;;;;;-3.04;100.00;94392.25;10524749;28;20313;-74
2021/12/01 05:11:57;;;;;;;;;;;;;;;-2.98;100.00;94395.91;10515351;28;19961;-73
2021/12/01 05:16:58;;;;;;;;;;;;;;;-2.91;100.00;94402.00;10531763;28;19912;-74
2021/12/01 05:21:58;;;;;;;;;;;;;;;-2.77;100.00;94408.09;10532183;28;19916;-74
2021/12/01 05:26:58;;;;;;;;;;;;;;;-2.93;100.00;94419.78;10531683;28;19923;-73
2021/12/01 05:31:59;;;;;;;;;;;;;;;-2.83;100.00;94408.88;10503332;28;19958;-76
2021/12/01 05:37:00;;;;;;;;;;;;;;;-2.84;100.00;94415.16;10500627;28;20360;-74
2021/12/01 05:42:00;;;;;;;;;;;;;;;-2.85;100.00;94398.56;10524613;28;20018;-76
2021/12/01 05:47:01;;;;;;;;;;;;;;;-2.88;100.00;94416.56;10516765;28;19924;-78
2021/12/01 05:52:02;;;;;;;;;;;;;;;-2.89;100.00;94413.09;10527840;28;20335;-74
2021/12/01 05:57:02;;;;;;;;;;;;;;;-2.82;100.00;94411.34;10526189;28;19916;-73
2021/12/01 06:02:03;;;;;;;;;;;;;;;-2.89;100.00;94412.31;10527720;28;19933;-74
2021/12/01 06:07:03;;;;;;;;;;;;;;;-2.84;100.00;94415.16;10529661;28;19969;-76
2021/12/01 06:12:04;;;;;;;;;;;;;;;-2.89;100.00;94426.25;10529004;28;19920;-73
2021/12/01 06:17:04;;;;;;;;;;;;;;;-2.88;100.00;94435.78;10530562;28;19912;-74
2021/12/01 06:22:05;;;;;;;;;;;;;;;-2.84;100.00;94438.84;10529860;28;19918;-73
2021/12/01 06:27:05;;;;;;;;;;;;;;;-2.67;100.00;94458.50;10528973;28;19920;-77
2021/12/01 06:32:06;;;;;;;;;;;;;;;-2.52;100.00;94449.66;10528752;28;19912;-74
2021/12/01 06:37:06;;;;;;;;;;;;;;;-2.24;100.00;94455.56;10529590;28;19916;-73
2021/12/01 06:42:07;;;;;;;;;;;;;;;-2.06;100.00;94477.88;10528619;28;20343;-74
2021/12/01 06:47:07;;;;;;;;;;;;;;;-2.06;100.00;94488.41;10527236;28;19931;-78
2021/12/01 06:52:08;;;;;;;;;;;;;;;-1.95;100.00;94500.97;10530275;28;20350;-75
2021/12/01 06:57:08;;;;;;;;;;;;;;;-2.06;100.00;94499.75;10529175;28;19919;-75
2021/12/01 07:02:08;;;;;;;;;;;;;;;-2.01;100.00;94485.16;10528066;28;19927;-75
2021/12/01 07:07:09;;;;;;;;;;;;;;;-1.83;100.00;94479.31;10527562;28;19924;-76
2021/12/01 07:12:09;;;;;;;;;;;;;;;-1.74;100.00;94496.53;10528413;28;19966;-74
2021/12/01 07:17:09;;;;;;;;;;;;;;;-1.64;100.00;94510.09;10528868;28;19912;-80
2021/12/01 07:22:10;;;;;;;;;;;;;;;-1.57;100.00;94489.84;10529425;28;19934;-74
2021/12/01 07:27:11;;;;;;;;;;;;;;;-1.33;100.00;94474.41;10541163;28;20382;-75
2021/12/01 07:32:12;;;;;;;;;;;;;;;-0.91;100.00;94482.84;10547186;28;19969;-75
2021/12/01 07:37:13;;;;;;;;;;;;;;;-0.66;100.00;94476.84;10528313;28;19919;-72
2021/12/01 07:42:14;;;;;;;;;;;;;;;-0.05;100.00;94464.16;10527585;28;19912;-74
2021/12/01 07:47:14;;;;;;;;;;;;;;;1.05;100.00;94477.84;10526226;28;19932;-74
2021/12/01 07:52:14;;;;;;;;;;;;;;;1.04;100.00;94484.97;10526480;28;19919;-77
2021/12/01 07:57:15;;;;;;;;;;;;;;;0.86;100.00;94501.63;10508962;28;19916;-78
2021/12/01 08:02:15;;;;;;;;;;;;;;;0.98;100.00;94507.84;10526119;28;19922;-75
2021/12/01 08:07:16;;;;;;;;;;;;;;;1.65;100.00;94501.78;10524626;28;19923;-74
2021/12/01 08:12:16;;;;;;;;;;;;;;;2.33;100.00;94501.69;10525730;28;20347;-75
2021/12/01 08:17:16;;;;;;;;;;;;;;;2.51;100.00;94525.50;10526278;28;20015;-82
2021/12/01 08:22:16;;;;;;;;;;;;;;;3.03;100.00;94530.16;10525112;28;19930;-75
2021/12/01 08:27:17;;;;;;;;;;;;;;;2.62;100.00;94521.22;10526208;28;20392;-75
2021/12/01 08:32:18;;;;;;;;;;;;;;;2.70;100.00;94507.63;10524896;28;20413;-75
2021/12/01 08:37:19;;;;;;;;;;;;;;;2.52;100.00;94513.03;10526208;28;20049;-75
2021/12/01 08:42:20;;;;;;;;;;;;;;;2.65;100.00;94512.84;10524827;28;20050;-76
2021/12/01 08:47:23;;;;;;;;;;;;;;;2.45;100.00;94497.22;10524512;28;19924;-80
2021/12/01 08:52:23;;;;;;;;;;;;;;;2.60;100.00;94502.09;10524712;28;19916;-80
2021/12/01 08:57:24;;;;;;;;;;;;;;;2.72;100.00;94510.88;10524398;28;19916;-75
2021/12/01 09:02:24;;;;;;;;;;;;;;;2.73;100.00;94503.72;10525051;28;20007;-78
2021/12/01 09:07:24;;;;;;;;;;;;;;;2.99;100.00;94520.25;10524443;28;19917;-75
2021/12/01 09:12:24;;;;;;;;;;;;;;;3.67;100.00;94509.97;10524346;28;19919;-75
2021/12/01 09:17:25;;;;;;;;;;;;;;;4.14;100.00;94511.69;10523445;28;19912;-75
2021/12/01 09:22:25;;;;;;;;;;;;;;;3.81;100.00;94510.50;10524372;28;20025;-76
2021/12/01 09:27:26;;;;;;;;;;;;;;;3.96;100.00;94510.00;10523270;28;19920;-75
2021/12/01 09:32:26;;;;;;;;;;;;;;;4.49;100.00;94506.16;10507113;28;19916;-74
2021/12/01 09:37:27;;;;;;;;;;;;;;;4.94;100.00;94507.97;10523118;28;20441;-75
2021/12/01 09:42:27;;;;;;;;;;;;;;;5.65;100.00;94507.34;10523298;28;19923;-75
2021/12/01 09:47:27;;;;;;;;;;;;;;;6.35;100.00;94498.81;10524607;28;20394;-77
2021/12/01 09:52:28;;;;;;;;;;;;;;;6.86;100.00;94493.09;10523953;28;19916;-74
2021/12/01 09:57:28;;;;;;;;;;;;;;;7.32;100.00;94481.91;10530812;28;19970;-73
2021/12/01 10:02:28;;;;;;;;;;;;;;;7.69;88.60;94471.13;10513278;28;19912;-73
2021/12/01 10:07:33;;;;;;;;;;;;;;;8.83;78.85;94472.19;10532647;28;19916;-76
2021/12/01 10:12:49;;;;;;;;;;;;;;;11.51;64.28;94451.16;10530207;28;19935;-73
2021/12/01 10:17:49;;;;;;;;;;;;;;;14.29;49.01;94457.59;10529771;28;19919;-79
2021/12/01 10:23:05;;;;;;;;;;;;;;;15.76;45.52;94453.53;10529558;28;19969;-74
2021/12/01 10:28:06;;;;;;;;;;;;;;;17.30;39.22;94450.06;10529991;28;20385;-81
2021/12/01 10:33:07;;;;;;;;;;;;;;;16.84;38.91;94461.28;10529605;28;20034;-75
2021/12/01 10:38:08;;;;;;;;;;;;;;;16.66;38.40;94451.53;10529221;28;20346;-74
2021/12/01 10:43:10;;;;;;;;;;;;;;;16.38;36.79;94454.53;10529255;28;19994;-76
2021/12/01 10:48:18;;;;;;;;;;;;;;;15.10;39.66;94461.44;10529555;28;20264;-74
2021/12/01 10:53:21;;;;;;;;;;;;;;;13.34;43.78;94456.19;10528774;28;19912;-79
2021/12/01 10:58:22;;;;;;;;;;;;;;;15.32;41.65;94428.97;10527164;28;19912;-75
2021/12/01 11:03:27;;;;;;;;;;;;;;;17.10;39.65;94421.69;10528770;28;19912;-75
2021/12/01 11:08:31;;;;;;;;;;;;;;;16.84;38.24;94420.56;10529967;28;19920;-76
2021/12/01 11:13:31;;;;;;;;;;;;;;;14.88;37.37;94419.78;10527839;28;19998;-75
2021/12/01 11:18:32;;;;;;;;;;;;;;;15.16;40.49;94411.50;10527807;28;19912;-75
2021/12/01 11:23:37;;;;;;;;;;;;;;;14.79;39.86;94418.91;10527770;28;19919;-74
2021/12/01 11:28:51;;;;;;;;;;;;;;;15.64;38.84;94396.44;10528794;28;19916;-79
2021/12/01 11:33:56;;;;;;;;;;;;;;;17.13;35.29;94393.88;10527686;28;20348;-79
2021/12/01 11:38:58;;;;;;;;;;;;;;;16.94;36.71;94388.81;10527342;28;20414;-72
2021/12/01 11:43:58;;;;;;;;;;;;;;;16.67;36.13;94382.59;10510035;28;19912;-75
2021/12/01 11:49:00;;;;;;;;;;;;;;;14.80;41.71;94385.34;10527136;28;19928;-76
2021/12/01 11:54:08;;;;;;;;;;;;;;;12.09;48.37;94391.78;10527292;28;19912;-76
2021/12/01 11:59:14;;;;;;;;;;;;;;;9.97;49.65;94394.09;10526764;28;19918;-76
2021/12/01 12:04:16;;;;;;;;;;;;;;;8.69;65.77;94404.13;10526833;28;19912;-76
2021/12/01 12:09:20;;;;;;;;;;;;;;;7.82;79.58;94386.91;10525912;28;20011;-78
2021/12/01 12:14:32;;;;;;;;;;;;;;;7.29;88.27;94386.19;10526211;28;19947;-77
2021/12/01 12:19:48;;;;;;;;;;;;;;;6.49;95.15;94390.53;10525830;28;20002;-76
2021/12/01 12:24:55;;;;;;;;;;;;;;;6.39;100.00;94395.81;10525773;28;19912;-77
2021/12/01 12:29:57;;;;;;;;;;;;;;;6.11;100.00;94371.03;10526222;28;20009;-75
2021/12/01 12:35:00;;;;;;;;;;;;;;;5.85;100.00;94393.97;10525442;28;19912;-74
2021/12/01 12:40:02;;;;;;;;;;;;;;;5.59;100.00;94372.34;10524846;28;19972;-75
2021/12/01 12:45:03;;;;;;;;;;;;;;;5.46;100.00;94380.75;10501260;28;19932;-73
2021/12/01 12:50:18;;;;;;;;;;;;;;;5.06;100.00;94376.56;10483445;28;19923;-73
2021/12/01 12:55:21;;;;;;;;;;;;;;;5.19;100.00;94357.56;10485803;28;20325;-74
2021/12/01 13:00:21;;;;;;;;;;;;;;;4.99;100.00;94373.28;10500459;28;19919;-79
2021/12/01 13:05:30;;;;;;;;;;;;;;;4.87;100.00;94371.53;10484311;28;19926;-77
2021/12/01 13:10:36;;;;;;;;;;;;;;;4.85;100.00;94372.81;10483328;28;19920;-74
2021/12/01 13:15:38;;;;;;;;;;;;;;;4.60;100.00;94358.94;10497316;28;19916;-73
2021/12/01 13:20:40;;;;;;;;;;;;;;;4.38;100.00;94358.03;10481803;28;20375;-77
2021/12/01 13:25:42;;;;;;;;;;;;;;;4.28;100.00;94351.53;10483444;28;20434;-76
2021/12/01 13:30:53;;;;;;;;;;;;;;;4.32;100.00;94372.34;10491243;28;19916;-80
2021/12/01 13:35:58;;;;;;;;;;;;;;;4.33;100.00;94363.31;10493111;28;20374;-76
2021/12/01 13:41:06;;;;;;;;;;;;;;;4.21;100.00;94366.03;10506409;28;19919;-76
2021/12/01 13:46:06;;;;;;;;;;;;;;;4.12;100.00;94378.94;10506190;28;19981;-76
2021/12/01 13:51:09;;;;;;;;;;;;;;;4.20;100.00;94381.22;10501364;28;19965;-78
2021/12/01 13:56:11;;;;;;;;;;;;;;;4.15;100.00;94383.78;10532250;28;19912;-77
2021/12/01 14:01:16;;;;;;;;;;;;;;;4.13;100.00;94374.41;10530871;28;19912;-77
2021/12/01 14:06:16;;;;;;;;;;;;;;;4.18;100.00;94369.19;10532842;28;19920;-78
2021/12/01 14:11:21;;;;;;;;;;;;;;;4.26;100.00;94369.59;10530322;28;19912;-75
2021/12/01 14:16:23;;;;;;;;;;;;;;;4.21;100.00;94364.19;10530308;28;19912;-76
2021/12/01 14:21:25;;;;;;;;;;;;;;;3.99;100.00;94381.91;10529103;28;19943;-77
2021/12/01 14:26:30;;;;;;;;;;;;;;;3.86;100.00;94386.47;10529225;28;19916;-77
2021/12/01 14:31:31;;;;;;;;;;;;;;;3.75;100.00;94384.69;10529100;28;19919;-74
2021/12/01 14:36:31;;;;;;;;;;;;;;;3.69;100.00;94380.34;10528821;28;19919;-76
2021/12/01 14:41:33;;;;;;;;;;;;;;;3.67;100.00;94387.72;10527756;28;19912;-76
2021/12/01 14:46:34;;;;;;;;;;;;;;;3.53;100.00;94384.56;10523220;28;19971;-72
2021/12/01 14:51:35;;;;;;;;;;;;;;;3.58;100.00;94388.09;10522673;28;19965;-76
2021/12/01 14:56:35;;;;;;;;;;;;;;;3.48;100.00;94389.78;10528924;28;19920;-80
2021/12/01 15:01:35;;;;;;;;;;;;;;;3.38;100.00;94387.75;10528963;28;19935;-77
2021/12/01 15:06:36;;;;;;;;;;;;;;;3.37;100.00;94392.25;10529086;28;19963;-75
2021/12/01 15:11:42;;;;;;;;;;;;;;;3.31;100.00;94392.38;10528391;28;20439;-80
2021/12/01 15:16:42;;;;;;;;;;;;;;;3.28;100.00;94398.97;10526887;28;19916;-73
2021/12/01 15:21:47;;;;;;;;;;;;;;;3.28;100.00;94401.63;10530126;28;20311;-80
2021/12/01 15:26:49;;;;;;;;;;;;;;;3.17;100.00;94397.16;10528023;28;19920;-76
2021/12/01 15:31:55;;;;;;;;;;;;;;;3.16;100.00;94399.00;10525436;28;19918;-76
2021/12/01 15:36:55;;;;;;;;;;;;;;;2.95;100.00;94419.00;10526366;28;19959;-79
2021/12/01 15:42:00;;;;;;;;;;;;;;;2.89;100.00;94419.97;10526360;28;20386;-77
2021/12/01 15:47:00;;;;;;;;;;;;;;;2.98;100.00;94428.38;10525423;28;19931;-77
2021/12/01 15:52:01;;;;;;;;;;;;;;;2.87;100.00;94424.69;10512415;28;19920;-74
2021/12/01 15:57:01;;;;;;;;;;;;;;;2.74;100.00;94423.88;10484841;28;19923;-78
2021/12/01 16:02:02;;;;;;;;;;;;;;;2.69;100.00;94423.78;10485756;28;19913;-76
2021/12/01 16:07:03;;;;;;;;;;;;;;;2.64;100.00;94421.00;10484621;28;19951;-74
2021/12/01 16:12:04;;;;;;;;;;;;;;;2.65;100.00;94419.97;10501675;28;19912;-76
2021/12/01 16:17:04;;;;;;;;;;;;;;;2.54;100.00;94420.75;10523891;28;19985;-75
2021/12/01 16:22:04;;;;;;;;;;;;;;;2.56;100.00;94435.41;10511650;28;19916;-76
2021/12/01 16:27:05;;;;;;;;;;;;;;;2.59;100.00;94436.78;10459723;22;19925;-78
2021/12/01 16:32:05;;;;;;;;;;;;;;;2.57;100.00;94430.94;10397259;28;20076;-76
2021/12/01 16:37:08;;;;;;;;;;;;;;;2.50;100.00;94446.94;10415606;28;19928;-76
2021/12/01 16:42:08;;;;;;;;;;;;;;;2.37;100.00;94452.47;10375386;28;19964;-75
2021/12/01 16:47:08;;;;;;;;;;;;;;;2.38;100.00;94454.09;10390478;28;20357;-78
2021/12/01 16:52:08;;;;;;;;;;;;;;;2.26;100.00;94456.72;10379232;28;19914;-76
2021/12/01 16:57:09;;;;;;;;;;;;;;;2.31;100.00;94456.84;10357313;28;19917;-75
2021/12/01 17:02:10;;;;;;;;;;;;;;;2.37;100.00;94449.81;10389296;28;19913;-75
2021/12/01 17:07:24;;;;;;;;;;;;;;;2.42;100.00;94446.50;10407288;28;19917;-76
2021/12/01 17:12:24;;;;;;;;;;;;;;;2.43;100.00;94443.59;10383574;28;20342;-75
2021/12/01 17:17:24;;;;;;;;;;;;;;;2.51;100.00;94437.97;10407769;28;19917;-78
2021/12/01 17:22:25;;;;;;;;;;;;;;;2.56;100.00;94447.88;10408260;28;20279;-78
2021/12/01 17:27:27;;;;;;;;;;;;;;;2.45;100.00;94444.16;10383542;28;19948;-76
2021/12/01 17:32:29;;;;;;;;;;;;;;;2.35;100.00;94446.59;10367395;28;19976;-75
2021/12/01 17:37:29;;;;;;;;;;;;;;;2.27;100.00;94446.91;10381828;28;19963;-75
2021/12/01 17:42:31;;;;;;;;;;;;;;;2.26;100.00;94432.88;10365785;28;19913;-80
2021/12/01 17:47:32;;;;;;;;;;;;;;;2.11;100.00;94435.94;10365588;28;20422;-76
2021/12/01 17:52:32;;;;;;;;;;;;;;;2.18;100.00;94436.66;10365480;28;19913;-75
2021/12/01 17:57:32;;;;;;;;;;;;;;;2.14;100.00;94434.69;10385050;28;19917;-75
2021/12/01 18:02:33;;;;;;;;;;;;;;;1.99;100.00;94443.84;10396440;28;20010;-75
2021/12/01 18:07:33;;;;;;;;;;;;;;;2.04;100.00;94436.03;10366223;28;19925;-77
2021/12/01 18:12:34;;;;;;;;;;;;;;;2.05;100.00;94436.84;10428315;28;20326;-79
2021/12/01 18:17:37;;;;;;;;;;;;;;;2.05;100.00;94442.13;10424866;28;20454;-75
2021/12/01 18:22:40;;;;;;;;;;;;;;;1.82;100.00;94458.78;10415290;28;20387;-75
2021/12/01 18:27:40;;;;;;;;;;;;;;;1.91;100.00;94449.47;10415567;28;20028;-76
2021/12/01 18:32:41;;;;;;;;;;;;;;;1.92;100.00;94450.31;10411222;28;20080;-75
2021/12/01 18:37:42;;;;;;;;;;;;;;;1.74;100.00;94445.84;10407243;28;19914;-76
2021/12/01 18:42:42;;;;;;;;;;;;;;;1.73;100.00;94453.00;10412314;28;19913;-74
2021/12/01 18:47:43;;;;;;;;;;;;;;;1.70;100.00;94461.38;10381795;28;19918;-74
2021/12/01 18:52:44;;;;;;;;;;;;;;;1.63;100.00;94445.59;10365938;28;19913;-80
2021/12/01 18:57:44;;;;;;;;;;;;;;;1.40;100.00;94450.78;10388103;28;20007;-73
2021/12/01 19:02:45;;;;;;;;;;;;;;;1.34;100.00;94449.81;10402772;28;20390;-76
2021/12/01 19:07:46;;;;;;;;;;;;;;;1.33;100.00;94454.31;10401479;28;19991;-74
2021/12/01 19:12:46;;;;;;;;;;;;;;;1.31;100.00;94447.63;10402394;28;19913;-74
2021/12/01 19:17:47;;;;;;;;;;;;;;;1.20;100.00;94446.53;10386720;28;19925;-73
2021/12/01 19:22:48;;;;;;;;;;;;;;;1.00;100.00;94459.97;10403975;28;19982;-75
2021/12/01 19:27:48;;;;;;;;;;;;;;;0.77;100.00;94460.63;10383873;28;20462;-73
2021/12/01 19:32:53;;;;;;;;;;;;;;;0.83;100.00;94457.09;10398744;28;19921;-78
2021/12/01 19:37:53;;;;;;;;;;;;;;;0.90;100.00;94451.75;10381584;28;20292;-77
2021/12/01 19:42:54;;;;;;;;;;;;;;;0.93;100.00;94448.66;10381684;28;19917;-79
2021/12/01 19:47:55;;;;;;;;;;;;;;;1.05;100.00;94454.84;10372495;28;19925;-73
2021/12/01 19:52:55;;;;;;;;;;;;;;;1.19;100.00;94435.13;10381325;28;20008;-76
2021/12/01 19:57:56;;;;;;;;;;;;;;;1.17;100.00;94439.84;10381492;28;19917;-73
2021/12/01 20:02:57;;;;;;;;;;;;;;;1.16;100.00;94440.88;10376672;28;20315;-73
2021/12/01 20:07:59;;;;;;;;;;;;;;;0.99;100.00;94456.53;10394625;28;19968;-73
2021/12/01 20:13:02;;;;;;;;;;;;;;;0.93;100.00;94456.59;10400820;28;19955;-74
2021/12/01 20:18:03;;;;;;;;;;;;;;;0.98;100.00;94449.63;10382259;28;20615;-75
2021/12/01 20:23:06;;;;;;;;;;;;;;;0.97;100.00;94436.63;10400575;28;19921;-80
2021/12/01 20:28:07;;;;;;;;;;;;;;;0.86;100.00;94419.63;10402043;28;20417;-74
2021/12/01 20:33:09;;;;;;;;;;;;;;;0.85;100.00;94413.53;10373018;28;19914;-74
2021/12/01 20:38:09;;;;;;;;;;;;;;;0.93;100.00;94406.31;10391329;28;19929;-78
2021/12/01 20:43:09;;;;;;;;;;;;;;;0.74;100.00;94406.34;10387442;28;19921;-72
2021/12/01 20:54:08;;;;;;;;;;;;;;;0.75;100.00;94413.22;10361169;28;20215;-73
2021/12/01 21:04:12;;;;;;;;;;;;;;;0.70;100.00;94399.88;10360035;28;19914;-73
2021/12/01 21:14:26;;;;;;;;;;;;;;;0.62;100.00;94416.03;10400707;28;19917;-73
2021/12/01 21:19:30;;;;;;;;;;;;;;;0.64;100.00;94406.00;10380029;28;19913;-73
2021/12/01 21:24:32;;;;;;;;;;;;;;;0.69;100.00;94408.81;10375236;28;20365;-75
2021/12/01 21:29:34;;;;;;;;;;;;;;;0.76;100.00;94391.03;10369235;28;20457;-74
2021/12/01 21:34:54;;;;;;;;;;;;;;;0.65;100.00;94379.34;10399213;28;20008;-78
2021/12/01 21:39:56;;;;;;;;;;;;;;;0.60;100.00;94378.41;10397609;28;19917;-76
2021/12/01 21:44:57;;;;;;;;;;;;;;;0.57;100.00;94363.78;10399999;28;20454;-76
2021/12/01 21:49:57;;;;;;;;;;;;;;;0.46;100.00;94380.38;10402149;28;19921;-77
2021/12/01 21:54:58;;;;;;;;;;;;;;;0.40;100.00;94370.69;10405323;28;19913;-76
2021/12/01 21:59:58;;;;;;;;;;;;;;;0.46;100.00;94370.63;10405788;28;19920;-76
2021/12/01 22:04:59;;;;;;;;;;;;;;;0.43;100.00;94376.34;10406011;28;19920;-74
2021/12/01 22:09:59;;;;;;;;;;;;;;;0.46;100.00;94375.06;10379121;28;19929;-75
2021/12/01 22:15:00;;;;;;;;;;;;;;;0.26;100.00;94381.34;10381214;28;20404;-78
2021/12/01 22:20:02;;;;;;;;;;;;;;;0.26;100.00;94357.56;10406054;28;20445;-73
2021/12/01 22:25:04;;;;;;;;;;;;;;;0.42;100.00;94352.75;10405742;28;19924;-73
2021/12/01 22:30:06;;;;;;;;;;;;;;;0.41;100.00;94346.66;10404974;28;20405;-76
2021/12/01 22:35:07;;;;;;;;;;;;;;;0.16;100.00;94347.50;10404647;28;19913;-78
2021/12/01 22:40:10;;;;;;;;;;;;;;;-0.03;100.00;94361.69;10404976;28;19917;-73
2021/12/01 22:45:11;;;;;;;;;;;;;;;0.00;100.00;94363.94;10384044;28;19917;-79
2021/12/01 22:50:13;;;;;;;;;;;;;;;-0.17;100.00;94368.91;10365007;28;19917;-77
2021/12/01 22:55:13;;;;;;;;;;;;;;;-0.02;100.00;94342.19;10364133;28;19917;-77
2021/12/01 23:00:19;;;;;;;;;;;;;;;0.07;100.00;94340.91;10372042;28;19944;-77
2021/12/01 23:05:21;;;;;;;;;;;;;;;0.07;100.00;94350.66;10392393;28;20006;-75
2021/12/01 23:10:22;;;;;;;;;;;;;;;-0.08;100.00;94351.00;10404027;28;19924;-76
2021/12/01 23:15:28;;;;;;;;;;;;;;;-0.42;100.00;94356.53;10404027;28;19920;-81
2021/12/01 23:20:29;;;;;;;;;;;;;;;-0.33;100.00;94357.06;10403528;28;19917;-76
2021/12/01 23:30:49;;;;;;;;;;;;;;;-0.20;100.00;94354.31;10364740;28;19921;-76
2021/12/01 23:35:49;;;;;;;;;;;;;;;-0.07;100.00;94349.94;10378373;28;20391;-74
2021/12/01 23:40:50;;;;;;;;;;;;;;;-0.39;100.00;94339.44;10376255;28;20000;-76
2021/12/01 23:51:17;;;;;;;;;;;;;;;-0.37;100.00;94371.72;10386707;28;19917;-72
2021/12/01 23:56:18;;;;;;;;;;;;;;;-0.59;100.00;94385.25;10400741;28;19917;-75
